Time;durP1;ratioP1;P1;durP2;ratioP2;P2;SDS_P1;SDS_P2;PMS_P1;PMS_P2;Temp;Humidity;BMP_temperature;BMP_pressure;BME280_temperature;BME280_humidity;BME280_pressure;Samples;Min_cycle;Max_cycle;Signal;HPM_P1;HPM_P2
2022/04/09 00:01:19;;;;;;;10.55;2.75;;;;;;;4.09;100.00;100118.03;5072371;28;20040;-86
2022/04/09 00:03:46;;;;;;;14.27;2.75;;;;;;;3.90;100.00;100120.16;5070545;28;20131;-86
2022/04/09 00:06:12;;;;;;;9.27;2.58;;;;;;;3.66;100.00;100093.84;5073330;28;20830;-86
2022/04/09 00:08:39;;;;;;;13.85;2.60;;;;;;;3.67;100.00;100112.84;5072763;28;20040;-86
2022/04/09 00:11:08;;;;;;;10.48;2.45;;;;;;;3.44;100.00;100088.25;5072574;28;20414;-86
2022/04/09 00:13:36;;;;;;;11.52;2.60;;;;;;;4.38;100.00;100167.50;5071202;28;20052;-85
2022/04/09 00:16:03;;;;;;;8.80;3.88;;;;;;;3.45;100.00;100092.50;5050621;28;20049;-85
2022/04/09 00:18:30;;;;;;;9.20;2.38;;;;;;;3.56;100.00;100150.13;5051774;28;20052;-86
2022/04/09 00:20:57;;;;;;;13.05;2.30;;;;;;;3.53;100.00;100113.94;5052778;28;20402;-86
2022/04/09 00:23:23;;;;;;;5.65;1.60;;;;;;;3.29;100.00;100128.16;5070295;28;20123;-84
2022/04/09 00:25:50;;;;;;;7.22;1.95;;;;;;;3.55;100.00;100182.06;5070580;28;20053;-84
2022/04/09 00:28:17;;;;;;;4.15;1.40;;;;;;;3.57;100.00;100163.91;5071705;28;20056;-84
2022/04/09 00:30:44;;;;;;;6.03;1.50;;;;;;;3.51;100.00;100161.47;5072343;28;20403;-84
2022/04/09 00:33:11;;;;;;;7.18;1.85;;;;;;;3.21;100.00;100105.03;5066969;28;20080;-85
2022/04/09 00:35:37;;;;;;;6.95;1.88;;;;;;;3.47;100.00;100152.91;5052731;28;20056;-85
2022/04/09 00:38:04;;;;;;;5.50;1.90;;;;;;;3.89;100.00;100154.69;5066591;28;20054;-85
2022/04/09 00:40:31;;;;;;;5.78;2.28;;;;;;;3.78;100.00;100155.75;5071691;28;20044;-85
2022/04/09 00:42:58;;;;;;;9.60;1.67;;;;;;;3.66;100.00;100150.81;5071960;28;20045;-86
2022/04/09 00:45:25;;;;;;;6.30;1.90;;;;;;;3.56;100.00;100141.50;5071939;28;20067;-86
2022/04/09 00:47:52;;;;;;;4.47;1.63;;;;;;;3.65;100.00;100135.28;5070842;28;20044;-85
2022/04/09 00:50:19;;;;;;;5.72;1.80;;;;;;;3.94;100.00;100164.09;5072548;28;20071;-86
2022/04/09 00:52:49;;;;;;;6.05;1.63;;;;;;;3.39;100.00;100158.19;5069818;28;20040;-86
2022/04/09 00:55:18;;;;;;;6.97;1.60;;;;;;;3.38;100.00;100184.97;5071404;28;20746;-85
2022/04/09 00:57:47;;;;;;;5.18;1.80;;;;;;;3.50;100.00;100163.16;5071452;28;20058;-85
2022/04/09 01:00:14;;;;;;;5.25;1.50;;;;;;;3.54;100.00;100172.59;5071305;28;20128;-84
2022/04/09 01:02:43;;;;;;;6.35;1.50;;;;;;;3.27;100.00;100121.31;5071443;28;20064;-85
2022/04/09 01:05:12;;;;;;;5.45;1.58;;;;;;;3.39;100.00;100136.63;5072561;28;20086;-86
2022/04/09 01:07:39;;;;;;;7.15;2.00;;;;;;;3.30;100.00;100129.03;5067763;28;20049;-86
2022/04/09 01:10:08;;;;;;;6.63;2.00;;;;;;;3.47;100.00;100177.91;5052019;28;20063;-83
2022/04/09 01:12:37;;;;;;;6.40;1.52;;;;;;;3.10;100.00;100132.81;5053627;28;20498;-82
2022/04/09 01:15:06;;;;;;;5.93;1.80;;;;;;;3.51;100.00;100175.25;5065222;28;20056;-85
2022/04/09 01:17:35;;;;;;;6.30;1.80;;;;;;;3.49;100.00;100137.31;5050540;28;20052;-85
2022/04/09 01:20:16;;;;;;;5.63;1.80;;;;;;;3.25;100.00;100154.13;5071378;28;20765;-85
2022/04/09 01:22:43;;;;;;;4.38;1.40;;;;;;;2.92;100.00;100148.63;5070457;28;20062;-85
2022/04/09 01:25:10;;;;;;;4.47;1.40;;;;;;;3.06;100.00;100154.44;5072442;28;20056;-85
2022/04/09 01:27:37;;;;;;;6.57;1.70;;;;;;;3.17;100.00;100146.47;5072003;28;20052;-85
2022/04/09 01:30:05;;;;;;;2.92;1.30;;;;;;;2.99;100.00;100148.53;5089532;28;20803;-85
2022/04/09 01:32:32;;;;;;;2.88;1.42;;;;;;;3.10;100.00;100147.47;5088800;28;20132;-85
2022/04/09 01:35:01;;;;;;;2.22;1.13;;;;;;;2.80;100.00;100167.78;5071435;28;20058;-85
2022/04/09 01:37:28;;;;;;;3.05;1.25;;;;;;;2.92;100.00;100136.56;5072890;28;20049;-85
2022/04/09 01:39:54;;;;;;;3.50;1.25;;;;;;;3.08;100.00;100168.22;5073016;28;20048;-86
2022/04/09 01:42:22;;;;;;;4.85;1.77;;;;;;;3.30;100.00;100175.63;5070728;28;20146;-85
2022/04/09 01:44:48;;;;;;;3.67;1.20;;;;;;;3.00;100.00;100157.97;5070791;28;20052;-85
2022/04/09 01:47:15;;;;;;;5.68;1.30;;;;;;;3.28;100.00;100170.47;5071805;28;20063;-86
2022/04/09 01:49:42;;;;;;;3.15;1.30;;;;;;;3.12;100.00;100174.19;5071973;28;20059;-86
2022/04/09 01:52:08;;;;;;;4.57;1.50;;;;;;;3.31;100.00;100192.84;5070658;28;20052;-85
2022/04/09 01:54:35;;;;;;;3.05;1.30;;;;;;;3.06;100.00;100177.69;5066985;28;20067;-85
2022/04/09 01:57:02;;;;;;;4.70;1.73;;;;;;;3.30;100.00;100233.38;5050548;28;20053;-85
2022/04/09 01:59:29;;;;;;;4.97;1.70;;;;;;;3.23;100.00;100230.03;5050790;28;20045;-86
2022/04/09 02:01:56;;;;;;;4.32;1.52;;;;;;;3.03;100.00;100211.41;5050634;28;20065;-86
2022/04/09 02:04:23;;;;;;;6.43;1.50;;;;;;;2.91;100.00;100196.06;5069855;28;20048;-85
2022/04/09 02:06:50;;;;;;;5.00;1.45;;;;;;;2.83;100.00;100183.22;5070322;28;20051;-86
2022/04/09 02:09:17;;;;;;;5.07;1.42;;;;;;;2.61;100.00;100214.56;5070656;28;20048;-86
2022/04/09 02:11:43;;;;;;;5.38;1.40;;;;;;;2.58;100.00;100217.16;5070809;28;20059;-86
2022/04/09 02:14:11;;;;;;;5.28;1.65;;;;;;;3.00;100.00;100278.69;5069019;28;20486;-86
2022/04/09 02:16:39;;;;;;;2.28;1.10;;;;;;;2.74;100.00;100243.66;5071292;28;20055;-85
2022/04/09 02:19:08;;;;;;;3.47;1.17;;;;;;;2.66;100.00;100230.00;5070417;28;20049;-85
2022/04/09 02:21:35;;;;;;;2.60;1.30;;;;;;;2.44;100.00;100195.81;5069999;28;20056;-85
2022/04/09 02:24:02;;;;;;;3.47;1.35;;;;;;;2.45;100.00;100200.13;5069352;28;20402;-85
2022/04/09 02:26:28;;;;;;;3.15;1.00;;;;;;;2.75;100.00;100242.81;5071351;28;20048;-84
2022/04/09 02:28:56;;;;;;;5.72;2.17;;;;;;;2.88;100.00;100246.06;5073976;28;20048;-83
2022/04/09 02:31:23;;;;;;;3.83;1.40;;;;;;;2.99;100.00;100218.34;5073134;28;20052;-84
2022/04/09 02:33:50;;;;;;;4.25;1.33;;;;;;;2.95;100.00;100226.16;5072510;28;20055;-85
2022/04/09 02:36:17;;;;;;;3.80;1.63;;;;;;;3.27;100.00;100228.25;5072694;28;20048;-85
2022/04/09 02:38:43;;;;;;;6.82;1.20;;;;;;;3.00;100.00;100189.00;5053950;28;20534;-86
2022/04/09 02:41:10;;;;;;;3.63;1.25;;;;;;;3.29;100.00;100242.00;5054955;28;20052;-85
2022/04/09 02:43:40;;;;;;;3.05;1.30;;;;;;;3.58;100.00;100295.09;5064120;28;20051;-85
2022/04/09 02:46:06;;;;;;;5.57;1.55;;;;;;;3.56;100.00;100265.75;5073341;28;20055;-86
2022/04/09 02:48:34;;;;;;;4.68;1.52;;;;;;;3.21;100.00;100291.31;5074184;28;20399;-86
2022/04/09 02:51:00;;;;;;;4.07;1.58;;;;;;;3.62;100.00;100288.97;5074981;28;20051;-86
2022/04/09 02:53:27;;;;;;;7.38;1.80;;;;;;;3.44;100.00;100290.13;5072630;28;20044;-86
2022/04/09 02:55:54;;;;;;;4.60;1.60;;;;;;;3.65;100.00;100303.59;5074486;28;20048;-86
2022/04/09 02:58:21;;;;;;;5.53;1.63;;;;;;;3.36;100.00;100243.63;5069799;28;20048;-85
2022/04/09 03:00:47;;;;;;;11.00;1.77;;;;;;;3.11;100.00;100234.56;5054981;28;20470;-85
2022/04/09 03:03:14;;;;;;;7.60;1.92;;;;;;;3.00;100.00;100230.38;5062136;28;20045;-85
2022/04/09 03:05:41;;;;;;;6.43;1.90;;;;;;;3.20;100.00;100222.31;5073676;28;20048;-85
2022/04/09 03:08:08;;;;;;;13.73;2.33;;;;;;;3.31;100.00;100275.63;5074964;28;20501;-85
2022/04/09 03:10:34;;;;;;;11.10;1.92;;;;;;;3.11;100.00;100278.53;5075066;28;20383;-86
2022/04/09 03:13:04;;;;;;;9.80;2.03;;;;;;;3.35;100.00;100280.75;5070884;28;20537;-85
2022/04/09 03:15:31;;;;;;;12.00;2.97;;;;;;;3.19;100.00;100254.25;5054123;28;20136;-86
2022/04/09 03:17:58;;;;;;;7.22;2.88;;;;;;;3.34;100.00;100280.78;5069923;28;20076;-86
2022/04/09 03:20:25;;;;;;;14.45;3.95;;;;;;;3.45;100.00;100259.91;5053527;28;20118;-86
2022/04/09 03:22:52;;;;;;;8.40;2.80;;;;;;;3.33;100.00;100267.00;5073891;28;20051;-86
2022/04/09 03:25:20;;;;;;;11.20;3.08;;;;;;;3.24;100.00;100285.25;5073107;28;20049;-85
2022/04/09 03:27:46;;;;;;;7.50;2.25;;;;;;;3.49;100.00;100288.31;5072536;28;20055;-85
2022/04/09 03:30:13;;;;;;;14.07;5.03;;;;;;;3.31;100.00;100284.28;5073093;28;20051;-85
2022/04/09 03:32:41;;;;;;;6.75;2.17;;;;;;;3.61;100.00;100313.13;5088568;28;20044;-85
2022/04/09 03:35:09;;;;;;;9.85;2.40;;;;;;;3.55;100.00;100300.31;5073649;28;20136;-85
2022/04/09 03:37:37;;;;;;;12.20;2.58;;;;;;;3.41;100.00;100310.84;5072707;28;20526;-85
2022/04/09 03:40:05;;;;;;;12.32;2.78;;;;;;;3.37;100.00;100317.81;5074395;28;20051;-85
2022/04/09 03:42:33;;;;;;;7.88;2.35;;;;;;;3.55;100.00;100328.78;5073440;28;20414;-85
2022/04/09 03:45:00;;;;;;;12.45;2.72;;;;;;;3.53;100.00;100292.56;5064297;28;20052;-85
2022/04/09 03:47:27;;;;;;;13.13;2.47;;;;;;;3.66;100.00;100305.31;5054203;28;20398;-85
2022/04/09 03:49:53;;;;;;;8.45;2.63;;;;;;;3.60;100.00;100311.44;5053026;28;20056;-85
2022/04/09 03:52:20;;;;;;;6.15;1.95;;;;;;;3.49;100.00;100316.78;5054412;28;20767;-85
2022/04/09 03:54:47;;;;;;;7.38;2.28;;;;;;;3.44;100.00;100294.44;5071998;28;20051;-84
2022/04/09 03:57:14;;;;;;;7.32;2.50;;;;;;;3.55;100.00;100310.66;5070082;28;20048;-85
2022/04/09 03:59:40;;;;;;;7.80;2.33;;;;;;;3.33;100.00;100316.16;5069477;28;20398;-85
2022/04/09 04:02:07;;;;;;;8.60;2.30;;;;;;;3.46;100.00;100328.91;5054194;28;20045;-85
2022/04/09 04:04:35;;;;;;;8.45;2.40;;;;;;;3.47;100.00;100307.31;5070057;28;20048;-85
2022/04/09 04:07:01;;;;;;;8.07;2.10;;;;;;;3.30;100.00;100313.59;5074261;28;20051;-86
2022/04/09 04:09:28;;;;;;;8.55;2.55;;;;;;;3.28;100.00;100328.31;5073095;28;20041;-85
2022/04/09 04:11:55;;;;;;;9.27;2.25;;;;;;;3.21;100.00;100313.75;5073847;28;20048;-85
2022/04/09 04:14:22;;;;;;;8.60;2.25;;;;;;;3.21;100.00;100313.75;5066641;28;20052;-84
2022/04/09 04:16:49;;;;;;;13.27;2.63;;;;;;;3.20;100.00;100322.38;5052457;28;20044;-85
2022/04/09 04:19:15;;;;;;;6.55;2.00;;;;;;;2.63;100.00;100280.00;5053501;28;20055;-85
2022/04/09 04:21:42;;;;;;;9.07;3.15;;;;;;;2.99;100.00;100337.31;5052656;28;20063;-85
2022/04/09 04:24:09;;;;;;;11.20;2.88;;;;;;;2.76;100.00;100290.19;5068271;28;20045;-85
2022/04/09 04:26:36;;;;;;;8.32;2.40;;;;;;;3.02;100.00;100326.91;5073322;28;20054;-84
2022/04/09 04:29:02;;;;;;;13.88;2.95;;;;;;;3.06;100.00;100329.47;5072623;28;20471;-83
2022/04/09 04:31:29;;;;;;;9.50;2.38;;;;;;;3.06;100.00;100334.63;5073089;28;20048;-84
2022/04/09 04:33:56;;;;;;;11.85;2.60;;;;;;;3.01;100.00;100309.69;5071836;28;20083;-82
2022/04/09 04:36:24;;;;;;;10.93;2.83;;;;;;;2.97;100.00;100333.88;5071425;28;20062;-83
2022/04/09 04:38:51;;;;;;;10.32;2.60;;;;;;;2.40;100.00;100257.03;5071397;28;20040;-82
2022/04/09 04:41:18;;;;;;;8.48;2.45;;;;;;;2.71;100.00;100310.94;5071418;28;20057;-83
2022/04/09 04:43:49;;;;;;;13.90;2.63;;;;;;;2.78;100.00;100302.25;5071720;28;20143;-83
2022/04/09 04:46:16;;;;;;;14.38;2.17;;;;;;;2.99;100.00;100362.31;5052159;28;20059;-83
2022/04/09 04:48:42;;;;;;;8.98;2.78;;;;;;;2.95;100.00;100304.59;5052140;28;20053;-83
2022/04/09 04:51:09;;;;;;;14.02;2.22;;;;;;;2.61;100.00;100330.88;5054376;28;20044;-83
2022/04/09 04:53:36;;;;;;;9.52;2.10;;;;;;;2.92;100.00;100332.22;5072393;28;20049;-84
2022/04/09 04:56:03;;;;;;;11.80;3.03;;;;;;;3.08;100.00;100363.91;5073099;28;20059;-85
2022/04/09 04:58:30;;;;;;;10.52;3.92;;;;;;;2.53;100.00;100295.63;5073633;28;20577;-84
2022/04/09 05:00:56;;;;;;;7.65;2.05;;;;;;;2.87;100.00;100309.03;5072745;28;20143;-84
2022/04/09 05:03:23;;;;;;;8.07;2.40;;;;;;;3.10;100.00;100337.19;5072241;28;20095;-84
2022/04/09 05:05:50;;;;;;;8.82;2.58;;;;;;;3.22;100.00;100347.38;5072728;28;20052;-84
2022/04/09 05:08:17;;;;;;;12.02;3.47;;;;;;;2.56;100.00;100274.94;5071840;28;20053;-84
2022/04/09 05:10:43;;;;;;;6.13;2.00;;;;;;;3.10;100.00;100297.50;5071592;28;20078;-84
2022/04/09 05:13:10;;;;;;;14.02;2.40;;;;;;;2.88;100.00;100305.56;5071690;28;20040;-84
2022/04/09 05:15:37;;;;;;;10.95;2.85;;;;;;;2.63;100.00;100287.75;5058321;28;20490;-84
2022/04/09 05:18:04;;;;;;;7.85;2.35;;;;;;;2.60;100.00;100292.09;5052763;28;20051;-84
2022/04/09 05:20:31;;;;;;;14.30;2.28;;;;;;;3.08;100.00;100348.41;5053342;28;20047;-84
2022/04/09 05:22:57;;;;;;;9.98;2.20;;;;;;;2.85;100.00;100310.75;5058526;28;20393;-84
2022/04/09 05:25:26;;;;;;;6.25;1.90;;;;;;;2.92;100.00;100298.59;5052615;28;20049;-84
2022/04/09 05:27:52;;;;;;;9.32;2.22;;;;;;;2.91;100.00;100326.22;5059630;28;20053;-84
2022/04/09 05:30:19;;;;;;;9.25;2.50;;;;;;;2.89;100.00;100320.22;5060700;28;20045;-83
2022/04/09 05:32:47;;;;;;;8.38;1.85;;;;;;;3.10;100.00;100354.41;5062588;28;20056;-84
2022/04/09 05:35:17;;;;;;;7.63;2.10;;;;;;;2.77;100.00;100322.94;5057529;28;20059;-84
2022/04/09 05:37:50;;;;;;;6.28;2.03;;;;;;;3.08;100.00;100315.66;5065081;28;20136;-84
2022/04/09 05:40:18;;;;;;;9.25;2.55;;;;;;;2.80;100.00;100325.50;5062676;28;20052;-84
2022/04/09 05:42:45;;;;;;;7.28;2.00;;;;;;;3.28;100.00;100354.19;5064945;28;20053;-84
2022/04/09 05:45:12;;;;;;;10.68;2.25;;;;;;;3.01;100.00;100327.81;5060971;28;20053;-84
2022/04/09 05:47:44;;;;;;;12.32;2.22;;;;;;;3.01;100.00;100311.41;5054602;28;20059;-83
2022/04/09 05:50:12;;;;;;;9.52;3.10;;;;;;;3.39;100.00;100398.88;5066015;28;20135;-84
2022/04/09 05:52:40;;;;;;;8.23;2.00;;;;;;;3.31;100.00;100397.25;5060251;28;20044;-84
2022/04/09 05:55:07;;;;;;;11.10;2.40;;;;;;;2.93;100.00;100327.03;5062377;28;20044;-84
2022/04/09 05:57:34;;;;;;;7.55;2.25;;;;;;;3.30;100.00;100355.00;5064102;28;20483;-84
2022/04/09 06:00:04;;;;;;;10.18;2.30;;;;;;;3.10;100.00;100332.00;5057056;28;20056;-84
2022/04/09 06:02:31;;;;;;;8.18;1.90;;;;;;;3.36;100.00;100364.41;5063119;28;20048;-84
2022/04/09 06:04:58;;;;;;;10.68;2.13;;;;;;;3.18;100.00;100345.66;5064842;28;20057;-84
2022/04/09 06:07:26;;;;;;;6.80;2.20;;;;;;;3.28;100.00;100345.56;5072599;28;20049;-84
2022/04/09 06:09:53;;;;;;;14.05;2.72;;;;;;;3.30;100.00;100399.00;5071667;28;20807;-84
2022/04/09 06:12:20;;;;;;;7.15;2.03;;;;;;;3.33;100.00;100352.38;5070737;28;20049;-84
2022/04/09 06:14:47;;;;;;;7.38;2.17;;;;;;;3.00;100.00;100320.91;5068669;28;20146;-84
2022/04/09 06:17:14;;;;;;;9.95;2.83;;;;;;;3.47;100.00;100349.59;5063637;28;20047;-84
2022/04/09 06:19:41;;;;;;;9.15;1.95;;;;;;;3.21;100.00;100349.97;5065173;28;20076;-84
2022/04/09 06:22:08;;;;;;;16.55;3.25;;;;;;;3.51;100.00;100392.69;5060998;28;20453;-84
2022/04/09 06:24:34;;;;;;;7.93;2.55;;;;;;;3.32;100.00;100376.53;5073224;28;20051;-84
2022/04/09 06:27:01;;;;;;;9.70;2.20;;;;;;;3.85;100.00;100420.66;5074547;28;20052;-84
2022/04/09 06:29:28;;;;;;;6.68;1.83;;;;;;;3.72;100.00;100403.59;5086377;28;20048;-85
2022/04/09 06:31:55;;;;;;;8.45;1.92;;;;;;;3.29;100.00;100373.13;5072989;28;20051;-84
2022/04/09 06:34:22;;;;;;;7.75;2.42;;;;;;;3.44;100.00;100356.56;5059568;28;20102;-84
2022/04/09 06:36:49;;;;;;;7.47;2.20;;;;;;;3.19;100.00;100375.00;5055950;28;20519;-84
2022/04/09 06:39:18;;;;;;;10.35;2.70;;;;;;;3.53;100.00;100418.56;5054255;28;20037;-84
2022/04/09 06:41:48;;;;;;;9.00;2.15;;;;;;;3.59;100.00;100403.78;5056110;28;20497;-85
2022/04/09 06:44:16;;;;;;;10.40;2.05;;;;;;;3.31;100.00;100402.44;5072515;28;20048;-85
2022/04/09 06:46:45;;;;;;;11.48;2.65;;;;;;;3.70;100.00;100418.28;5074052;28;20139;-85
2022/04/09 06:49:13;;;;;;;15.15;2.20;;;;;;;3.94;100.00;100454.19;5074796;28;20513;-85
2022/04/09 06:51:40;;;;;;;7.18;2.38;;;;;;;3.57;100.00;100412.44;5075023;28;20059;-83
2022/04/09 06:54:07;;;;;;;11.02;2.45;;;;;;;3.74;100.00;100401.84;5075218;28;20040;-83
2022/04/09 06:56:36;;;;;;;11.35;2.95;;;;;;;3.45;100.00;100372.03;5091349;28;20044;-82
2022/04/09 06:59:04;;;;;;;11.80;2.45;;;;;;;4.73;100.00;100452.94;5076245;28;20044;-83
2022/04/09 07:01:31;;;;;;;7.97;1.90;;;;;;;5.14;100.00;100408.03;5075417;28;20051;-85
2022/04/09 07:04:00;;;;;;;9.02;2.45;;;;;;;5.52;100.00;100402.91;5076242;28;20044;-83
2022/04/09 07:06:28;;;;;;;10.55;2.38;;;;;;;5.63;100.00;100380.16;5076113;28;20076;-83
2022/04/09 07:08:54;;;;;;;8.68;1.98;;;;;;;6.02;100.00;100413.91;5074905;28;20048;-85
2022/04/09 07:11:21;;;;;;;5.90;2.05;;;;;;;6.89;100.00;100391.75;5076480;28;20041;-86
2022/04/09 07:13:48;;;;;;;7.05;2.15;;;;;;;6.92;100.00;100383.81;5074976;28;20053;-86
2022/04/09 07:16:15;;;;;;;6.68;2.00;;;;;;;7.02;100.00;100413.91;5057560;28;20055;-85
2022/04/09 07:18:41;;;;;;;8.63;2.10;;;;;;;7.22;100.00;100423.78;5057087;28;20049;-83
2022/04/09 07:21:08;;;;;;;13.88;2.42;;;;;;;7.15;100.00;100390.13;5076413;28;20045;-86
2022/04/09 07:23:35;;;;;;;7.85;2.25;;;;;;;6.65;100.00;100419.28;5076592;28;20487;-86
2022/04/09 07:26:02;;;;;;;9.13;2.13;;;;;;;6.69;100.00;100444.31;5064083;28;20048;-83
2022/04/09 07:28:29;;;;;;;9.70;1.90;;;;;;;6.50;100.00;100423.13;5066380;28;20071;-84
2022/04/09 07:30:55;;;;;;;9.48;2.67;;;;;;;6.49;100.00;100454.38;5054297;28;20052;-85
2022/04/09 07:33:22;;;;;;;11.20;2.30;;;;;;;7.01;100.00;100421.75;5061679;28;20546;-85
2022/04/09 07:35:54;;;;;;;10.00;2.22;;;;;;;7.22;100.00;100400.34;5056236;28;20055;-83
2022/04/09 07:38:21;;;;;;;7.43;2.00;;;;;;;7.90;100.00;100453.03;5065464;28;20123;-83
2022/04/09 07:40:48;;;;;;;10.57;2.10;;;;;;;8.16;100.00;100415.69;5074813;28;20064;-81
2022/04/09 07:43:15;;;;;;;8.05;2.47;;;;;;;7.94;100.00;100466.81;5073845;28;20054;-83
2022/04/09 07:45:42;;;;;;;8.90;1.95;;;;;;;7.14;100.00;100415.31;5064561;28;20049;-84
2022/04/09 07:48:11;;;;;;;9.07;2.30;;;;;;;7.60;100.00;100467.84;5069088;28;20479;-83
2022/04/09 07:50:38;;;;;;;7.25;1.73;;;;;;;7.45;100.00;100474.34;5067465;28;20075;-82
2022/04/09 07:53:07;;;;;;;5.90;1.90;;;;;;;7.71;100.00;100510.06;5066435;28;20037;-82
2022/04/09 07:55:35;;;;;;;10.20;2.05;;;;;;;7.28;100.00;100484.38;5054422;28;20487;-83
2022/04/09 07:58:02;;;;;;;10.45;2.30;;;;;;;7.26;100.00;100520.91;5061704;28;20092;-83
2022/04/09 08:00:33;;;;;;;10.23;2.00;;;;;;;7.17;100.00;100532.41;5053983;28;20068;-82
2022/04/09 08:03:00;;;;;;;15.45;2.33;;;;;;;7.93;100.00;100480.75;5060178;28;20043;-83
2022/04/09 08:05:27;;;;;;;11.07;2.63;;;;;;;7.64;100.00;100484.25;5068695;28;20063;-83
2022/04/09 08:07:53;;;;;;;6.18;2.15;;;;;;;7.36;100.00;100452.00;5070575;28;20049;-82
2022/04/09 08:10:20;;;;;;;6.63;1.88;;;;;;;7.35;100.00;100480.72;5072586;28;20045;-82
2022/04/09 08:12:49;;;;;;;7.70;1.83;;;;;;;7.62;100.00;100510.34;5072699;28;20052;-82
2022/04/09 08:15:18;;;;;;;9.20;2.17;;;;;;;7.77;100.00;100498.59;5061235;28;20137;-82
2022/04/09 08:17:47;;;;;;;10.10;2.45;;;;;;;7.46;100.00;100481.25;5054091;28;20081;-83
2022/04/09 08:20:14;;;;;;;8.20;2.28;;;;;;;7.66;100.00;100506.72;5053764;28;20097;-83
2022/04/09 08:22:41;;;;;;;7.43;2.17;;;;;;;8.13;100.00;100488.81;5055411;28;20052;-82
2022/04/09 08:25:10;;;;;;;12.60;2.67;;;;;;;8.66;100.00;100534.16;5072158;28;20102;-82
2022/04/09 08:27:38;;;;;;;8.23;2.15;;;;;;;7.94;100.00;100508.53;5065110;28;20119;-81
2022/04/09 08:30:06;;;;;;;8.07;1.80;;;;;;;7.60;98.26;100540.81;5072969;28;20459;-82
2022/04/09 08:32:33;;;;;;;7.47;2.15;;;;;;;8.08;98.63;100477.66;5069127;28;20407;-81
2022/04/09 08:35:01;;;;;;;7.18;1.83;;;;;;;8.75;97.03;100471.19;5073225;28;20648;-82
2022/04/09 08:37:27;;;;;;;10.57;2.00;;;;;;;8.13;90.06;100485.34;5073235;28;20055;-82
2022/04/09 08:39:57;;;;;;;8.57;2.10;;;;;;;7.52;92.79;100535.78;5073133;28;20059;-81
2022/04/09 08:42:24;;;;;;;12.82;3.00;;;;;;;7.46;94.41;100540.34;5070853;28;20048;-81
2022/04/09 08:44:51;;;;;;;8.40;2.08;;;;;;;7.12;97.31;100543.81;5058998;28;20140;-81
2022/04/09 08:47:18;;;;;;;8.05;2.40;;;;;;;7.55;96.13;100504.44;5053007;28;20052;-81
2022/04/09 08:49:47;;;;;;;12.00;2.88;;;;;;;7.27;93.17;100585.09;5053248;28;20556;-81
2022/04/09 08:52:15;;;;;;;9.57;2.03;;;;;;;7.09;93.35;100543.94;5052489;28;20045;-81
2022/04/09 08:54:42;;;;;;;9.55;2.58;;;;;;;6.99;93.87;100597.97;5072394;28;20637;-81
2022/04/09 08:57:10;;;;;;;8.70;1.92;;;;;;;6.68;96.07;100546.69;5069280;28;20710;-81
2022/04/09 08:59:37;;;;;;;8.27;1.88;;;;;;;7.07;96.35;100536.16;5066143;28;20045;-82
2022/04/09 09:02:05;;;;;;;7.80;2.20;;;;;;;7.85;98.59;100590.47;5067411;28;20052;-81
2022/04/09 09:04:33;;;;;;;10.73;2.40;;;;;;;8.41;94.10;100573.16;5070670;28;20045;-83
2022/04/09 09:07:44;;;;;;;11.80;2.50;;;;;;;8.05;90.10;100596.84;5065871;28;20055;-81
2022/04/09 09:10:16;;;;;;;11.30;2.10;;;;;;;7.20;94.87;100587.00;5023409;28;20052;-81
2022/04/09 09:12:43;;;;;;;11.63;3.08;;;;;;;7.02;97.25;100597.91;5057921;28;20409;-82
2022/04/09 09:15:11;;;;;;;10.50;2.50;;;;;;;6.54;100.00;100593.84;5072306;28;20421;-85
2022/04/09 09:17:38;;;;;;;9.73;2.50;;;;;;;6.02;100.00;100568.97;5064055;28;20045;-85
2022/04/09 09:20:12;;;;;;;11.52;2.85;;;;;;;6.25;100.00;100566.75;5069630;28;20049;-84
2022/04/09 09:22:42;;;;;;;10.88;1.98;;;;;;;6.87;100.00;100561.84;5071673;28;20044;-82
2022/04/09 09:25:10;;;;;;;9.27;2.42;;;;;;;7.54;100.00;100632.16;5073013;28;20063;-82
2022/04/09 09:27:40;;;;;;;10.10;2.50;;;;;;;7.73;100.00;100632.50;5071586;28;20394;-83
2022/04/09 09:30:12;;;;;;;12.10;2.85;;;;;;;7.07;100.00;100613.41;5070741;28;20049;-85
2022/04/09 09:32:41;;;;;;;10.30;2.55;;;;;;;7.72;100.00;100642.09;5071923;28;20041;-84
2022/04/09 09:35:12;;;;;;;8.90;2.25;;;;;;;6.76;100.00;100646.22;5051807;28;20098;-84
2022/04/09 09:37:38;;;;;;;9.25;2.78;;;;;;;6.25;100.00;100592.75;5072774;28;20059;-83
2022/04/09 09:40:06;;;;;;;8.60;2.00;;;;;;;6.20;100.00;100573.81;5071797;28;20148;-82
2022/04/09 09:42:35;;;;;;;9.48;2.30;;;;;;;6.06;100.00;100592.28;5070126;28;20044;-83
2022/04/09 09:45:02;;;;;;;9.70;2.47;;;;;;;6.36;100.00;100589.91;5072247;28;20139;-83
2022/04/09 09:47:28;;;;;;;12.40;2.72;;;;;;;6.76;100.00;100615.00;5071532;28;20638;-83
2022/04/09 09:49:56;;;;;;;10.23;2.45;;;;;;;7.20;100.00;100591.38;5071609;28;20386;-83
2022/04/09 09:52:28;;;;;;;10.35;2.30;;;;;;;7.29;100.00;100583.31;5072093;28;20052;-83
2022/04/09 09:55:01;;;;;;;7.25;1.92;;;;;;;8.17;100.00;100631.25;5072824;28;20040;-83
2022/04/09 09:57:30;;;;;;;10.23;2.47;;;;;;;7.56;100.00;100573.91;5079051;28;20402;-83
2022/04/09 10:00:04;;;;;;;9.55;2.15;;;;;;;7.87;100.00;100557.38;5092271;28;20135;-82
2022/04/09 10:02:32;;;;;;;10.02;2.20;;;;;;;7.85;100.00;100615.69;5088383;28;20505;-83
2022/04/09 10:04:59;;;;;;;12.93;1.92;;;;;;;8.34;100.00;100567.31;5071319;28;20049;-83
2022/04/09 10:07:26;;;;;;;11.02;2.13;;;;;;;8.20;94.97;100632.03;5071165;28;20052;-82
2022/04/09 10:09:53;;;;;;;8.43;1.85;;;;;;;8.02;97.30;100623.88;5072426;28;20051;-82
2022/04/09 10:12:23;;;;;;;7.60;2.10;;;;;;;8.07;91.63;100582.84;5071145;28;20502;-83
2022/04/09 10:14:54;;;;;;;5.40;2.10;;;;;;;8.91;89.81;100636.84;5064954;28;20063;-83
2022/04/09 10:17:21;;;;;;;9.52;2.15;;;;;;;8.89;88.19;100640.44;5052520;28;20053;-83
2022/04/09 10:19:59;;;;;;;7.07;1.88;;;;;;;9.13;94.75;100616.09;5052272;28;20055;-83
2022/04/09 10:22:30;;;;;;;9.88;1.80;;;;;;;9.39;91.08;100603.91;5053725;28;20045;-82
2022/04/09 10:24:59;;;;;;;8.48;1.83;;;;;;;8.95;90.28;100623.69;5051545;28;20407;-82
2022/04/09 10:27:39;;;;;;;8.68;3.00;;;;;;;9.19;96.00;100664.69;5052400;28;20149;-83
2022/04/09 10:30:13;;;;;;;14.93;2.30;;;;;;;8.27;90.09;100660.53;5052046;28;20135;-83
2022/04/09 10:32:44;;;;;;;15.43;2.22;;;;;;;8.53;90.11;100593.69;5055445;28;20080;-83
2022/04/09 10:35:39;;;;;;;7.32;1.98;;;;;;;8.63;87.89;100651.69;5070573;28;20051;-83
2022/04/09 10:38:09;;;;;;;8.90;2.13;;;;;;;8.84;90.14;100669.28;5070959;28;20044;-82
2022/04/09 10:40:56;;;;;;;11.43;2.13;;;;;;;8.63;86.96;100605.53;5070280;28;20044;-83
2022/04/09 10:43:23;;;;;;;15.40;3.30;;;;;;;9.12;85.36;100650.97;5052816;28;20080;-83
2022/04/09 10:46:02;;;;;;;12.55;2.88;;;;;;;9.48;84.06;100668.91;5071862;28;20048;-82
2022/04/09 10:48:33;;;;;;;10.02;2.05;;;;;;;9.13;80.15;100649.19;5072512;28;20051;-82
2022/04/09 10:51:08;;;;;;;7.30;2.13;;;;;;;9.37;81.83;100668.44;5073990;28;20048;-83
2022/04/09 10:53:38;;;;;;;8.43;1.92;;;;;;;9.10;82.21;100657.13;5073113;28;20045;-83
2022/04/09 10:56:12;;;;;;;8.05;2.13;;;;;;;9.41;80.36;100632.59;5073870;28;20090;-83
2022/04/09 10:58:57;;;;;;;14.98;2.58;;;;;;;8.76;81.58;100678.25;5077715;28;20710;-83
2022/04/09 11:01:49;;;;;;;7.85;2.15;;;;;;;8.59;80.21;100682.25;5074058;28;20075;-84
2022/04/09 11:04:43;;;;;;;11.63;2.03;;;;;;;9.70;78.78;100683.84;5071085;28;20049;-81
2022/04/09 11:07:11;;;;;;;;;;;;;;;9.02;76.84;100686.13;5055649;28;20163;-82
2022/04/09 11:09:42;;;;;;;8.85;2.00;;;;;;;9.63;76.19;100683.25;5056379;28;19921;-82
2022/04/09 11:12:09;;;;;;;14.50;4.05;;;;;;;9.18;70.84;100620.31;5054030;28;20051;-82
2022/04/09 11:14:48;;;;;;;7.93;1.85;;;;;;;9.11;70.44;100620.50;5071694;28;20056;-82
2022/04/09 11:17:24;;;;;;;7.78;2.10;;;;;;;8.85;73.84;100638.78;5075137;28;20081;-81
2022/04/09 11:19:52;;;;;;;7.95;2.13;;;;;;;8.35;73.56;100655.09;5064537;28;20049;-82
2022/04/09 11:22:20;;;;;;;6.10;1.90;;;;;;;9.42;71.92;100690.06;5081021;28;20131;-79
2022/04/09 11:24:46;;;;;;;11.35;2.55;;;;;;;10.15;70.02;100692.75;5068146;28;20080;-81
2022/04/09 11:27:13;;;;;;;10.27;1.70;;;;;;;9.39;68.20;100626.59;5080419;28;20039;-81
2022/04/09 11:29:42;;;;;;;10.90;2.03;;;;;;;9.47;66.88;100689.88;5080934;28;20057;-81